sensor_id;sensor_type;location;lat;lon;timestamp;pressure;altitude;pressure_sealevel;temperature
28803;BMP280;15949;55.656;37.422;2024-03-06T00:03:45;100521.59;;;-5.28
28803;BMP280;15949;55.656;37.422;2024-03-06T00:08:51;100525.22;;;-5.44
28803;BMP280;15949;55.656;37.422;2024-03-06T00:13:57;100532.22;;;-5.59
28803;BMP280;15949;55.656;37.422;2024-03-06T00:19:02;100542.53;;;-5.67
28803;BMP280;15949;55.656;37.422;2024-03-06T00:24:11;100531.13;;;-5.78
28803;BMP280;15949;55.656;37.422;2024-03-06T00:29:16;100533.75;;;-5.93
28803;BMP280;15949;55.656;37.422;2024-03-06T00:34:22;100538.44;;;-5.96
28803;BMP280;15949;55.656;37.422;2024-03-06T00:39:28;100532.56;;;-6.03
28803;BMP280;15949;55.656;37.422;2024-03-06T00:44:34;100541.28;;;-6.12
28803;BMP280;15949;55.656;37.422;2024-03-06T00:49:40;100538.44;;;-6.24
28803;BMP280;15949;55.656;37.422;2024-03-06T00:54:47;100551.25;;;-6.32
28803;BMP280;15949;55.656;37.422;2024-03-06T00:59:53;100538.91;;;-6.42
28803;BMP280;15949;55.656;37.422;2024-03-06T01:04:59;100538.41;;;-6.52
28803;BMP280;15949;55.656;37.422;2024-03-06T01:10:07;100533.47;;;-6.60
28803;BMP280;15949;55.656;37.422;2024-03-06T01:15:14;100527.09;;;-6.71
28803;BMP280;15949;55.656;37.422;2024-03-06T01:20:19;100526.69;;;-6.74
28803;BMP280;15949;55.656;37.422;2024-03-06T01:25:25;100524.53;;;-6.77
28803;BMP280;15949;55.656;37.422;2024-03-06T01:30:31;100527.44;;;-6.80
28803;BMP280;15949;55.656;37.422;2024-03-06T01:35:37;100535.72;;;-6.86
28803;BMP280;15949;55.656;37.422;2024-03-06T01:40:43;100529.81;;;-6.93
28803;BMP280;15949;55.656;37.422;2024-03-06T01:45:50;100537.34;;;-7.00
28803;BMP280;15949;55.656;37.422;2024-03-06T01:50:59;100535.72;;;-7.08
28803;BMP280;15949;55.656;37.422;2024-03-06T01:56:07;100540.63;;;-7.21
28803;BMP280;15949;55.656;37.422;2024-03-06T02:01:16;100545.44;;;-7.40
28803;BMP280;15949;55.656;37.422;2024-03-06T02:06:23;100544.13;;;-7.36
28803;BMP280;15949;55.656;37.422;2024-03-06T02:11:29;100550.34;;;-7.39
28803;BMP280;15949;55.656;37.422;2024-03-06T02:16:35;100547.03;;;-7.39
28803;BMP280;15949;55.656;37.422;2024-03-06T02:21:40;100545.00;;;-7.44
28803;BMP280;15949;55.656;37.422;2024-03-06T02:26:46;100546.31;;;-7.48
28803;BMP280;15949;55.656;37.422;2024-03-06T02:31:52;100545.69;;;-7.50
28803;BMP280;15949;55.656;37.422;2024-03-06T02:36:58;100544.91;;;-7.51
28803;BMP280;15949;55.656;37.422;2024-03-06T02:42:04;100545.09;;;-7.52
28803;BMP280;15949;55.656;37.422;2024-03-06T02:47:10;100541.94;;;-7.54
28803;BMP280;15949;55.656;37.422;2024-03-06T02:52:15;100560.69;;;-7.63
28803;BMP280;15949;55.656;37.422;2024-03-06T02:57:21;100565.34;;;-7.67
28803;BMP280;15949;55.656;37.422;2024-03-06T03:02:27;100571.59;;;-7.77
28803;BMP280;15949;55.656;37.422;2024-03-06T03:07:33;100583.38;;;-7.85
28803;BMP280;15949;55.656;37.422;2024-03-06T03:12:39;100585.50;;;-7.96
28803;BMP280;15949;55.656;37.422;2024-03-06T03:17:45;100586.22;;;-8.02
28803;BMP280;15949;55.656;37.422;2024-03-06T03:22:51;100588.47;;;-8.07
28803;BMP280;15949;55.656;37.422;2024-03-06T03:27:56;100596.53;;;-8.12
28803;BMP280;15949;55.656;37.422;2024-03-06T03:33:02;100591.22;;;-8.17
28803;BMP280;15949;55.656;37.422;2024-03-06T03:38:08;100604.88;;;-8.26
28803;BMP280;15949;55.656;37.422;2024-03-06T03:43:14;100606.44;;;-8.25
28803;BMP280;15949;55.656;37.422;2024-03-06T03:48:20;100598.88;;;-8.33
28803;BMP280;15949;55.656;37.422;2024-03-06T03:53:26;100602.16;;;-8.47
28803;BMP280;15949;55.656;37.422;2024-03-06T03:58:31;100595.72;;;-8.58
28803;BMP280;15949;55.656;37.422;2024-03-06T04:03:37;100597.97;;;-8.63
28803;BMP280;15949;55.656;37.422;2024-03-06T04:08:43;100603.81;;;-8.63
28803;BMP280;15949;55.656;37.422;2024-03-06T04:13:49;100608.06;;;-8.63
28803;BMP280;15949;55.656;37.422;2024-03-06T04:18:55;100601.56;;;-8.57
28803;BMP280;15949;55.656;37.422;2024-03-06T04:24:01;100596.19;;;-8.54
28803;BMP280;15949;55.656;37.422;2024-03-06T04:29:07;100597.94;;;-8.55
28803;BMP280;15949;55.656;37.422;2024-03-06T04:34:13;100599.00;;;-8.49
28803;BMP280;15949;55.656;37.422;2024-03-06T04:39:18;100601.47;;;-8.41
28803;BMP280;15949;55.656;37.422;2024-03-06T04:44:24;100597.34;;;-8.34
28803;BMP280;15949;55.656;37.422;2024-03-06T04:49:33;100603.94;;;-8.33
28803;BMP280;15949;55.656;37.422;2024-03-06T04:54:39;100598.88;;;-8.33
28803;BMP280;15949;55.656;37.422;2024-03-06T04:59:45;100595.97;;;-8.22
28803;BMP280;15949;55.656;37.422;2024-03-06T05:04:51;100594.00;;;-8.12
28803;BMP280;15949;55.656;37.422;2024-03-06T05:09:58;100597.34;;;-7.97
28803;BMP280;15949;55.656;37.422;2024-03-06T05:15:06;100588.75;;;-7.88
28803;BMP280;15949;55.656;37.422;2024-03-06T05:20:13;100592.91;;;-7.72
28803;BMP280;15949;55.656;37.422;2024-03-06T05:25:36;100604.19;;;-7.60
28803;BMP280;15949;55.656;37.422;2024-03-06T05:30:42;100606.09;;;-7.47
28803;BMP280;15949;55.656;37.422;2024-03-06T05:35:48;100604.38;;;-7.32
28803;BMP280;15949;55.656;37.422;2024-03-06T05:40:54;100614.41;;;-7.24
28803;BMP280;15949;55.656;37.422;2024-03-06T05:46:00;100616.41;;;-7.19
28803;BMP280;15949;55.656;37.422;2024-03-06T05:51:06;100608.91;;;-7.13
28803;BMP280;15949;55.656;37.422;2024-03-06T05:56:12;100609.16;;;-7.08
28803;BMP280;15949;55.656;37.422;2024-03-06T06:01:18;100614.50;;;-7.03
28803;BMP280;15949;55.656;37.422;2024-03-06T06:06:27;100612.66;;;-6.94
28803;BMP280;15949;55.656;37.422;2024-03-06T06:11:33;100622.75;;;-6.79
28803;BMP280;15949;55.656;37.422;2024-03-06T06:16:42;100618.00;;;-6.68
28803;BMP280;15949;55.656;37.422;2024-03-06T06:21:48;100611.28;;;-6.39
28803;BMP280;15949;55.656;37.422;2024-03-06T06:26:53;100617.03;;;-6.03
28803;BMP280;15949;55.656;37.422;2024-03-06T06:31:59;100619.28;;;-5.65
28803;BMP280;15949;55.656;37.422;2024-03-06T06:37:05;100623.63;;;-5.25
28803;BMP280;15949;55.656;37.422;2024-03-06T06:42:11;100630.94;;;-5.09
28803;BMP280;15949;55.656;37.422;2024-03-06T06:47:17;100625.56;;;-4.79
28803;BMP280;15949;55.656;37.422;2024-03-06T06:52:23;100627.94;;;-4.65
28803;BMP280;15949;55.656;37.422;2024-03-06T06:57:29;100633.63;;;-4.56
28803;BMP280;15949;55.656;37.422;2024-03-06T07:02:45;100639.34;;;-4.34
28803;BMP280;15949;55.656;37.422;2024-03-06T07:07:53;100643.69;;;-4.02
28803;BMP280;15949;55.656;37.422;2024-03-06T07:12:59;100641.47;;;-4.05
28803;BMP280;15949;55.656;37.422;2024-03-06T07:18:06;100638.56;;;-3.89
28803;BMP280;15949;55.656;37.422;2024-03-06T07:23:11;100639.34;;;-3.75
28803;BMP280;15949;55.656;37.422;2024-03-06T07:28:17;100634.91;;;-3.35
28803;BMP280;15949;55.656;37.422;2024-03-06T07:33:24;100640.69;;;-3.08
28803;BMP280;15949;55.656;37.422;2024-03-06T07:38:30;100639.72;;;-3.07
28803;BMP280;15949;55.656;37.422;2024-03-06T07:43:37;100646.47;;;-2.82
28803;BMP280;15949;55.656;37.422;2024-03-06T07:48:44;100649.84;;;-2.56
28803;BMP280;15949;55.656;37.422;2024-03-06T07:53:50;100650.59;;;-2.49
28803;BMP280;15949;55.656;37.422;2024-03-06T07:59:00;100644.53;;;-2.30
28803;BMP280;15949;55.656;37.422;2024-03-06T08:04:06;100656.22;;;-1.98
28803;BMP280;15949;55.656;37.422;2024-03-06T08:09:12;100657.09;;;-2.04
28803;BMP280;15949;55.656;37.422;2024-03-06T08:14:18;100653.00;;;-2.11
28803;BMP280;15949;55.656;37.422;2024-03-06T08:19:24;100655.22;;;-2.15
28803;BMP280;15949;55.656;37.422;2024-03-06T08:24:31;100659.75;;;-2.17
28803;BMP280;15949;55.656;37.422;2024-03-06T08:29:37;100661.22;;;-2.03
28803;BMP280;15949;55.656;37.422;2024-03-06T08:34:43;100657.97;;;-1.92
28803;BMP280;15949;55.656;37.422;2024-03-06T08:39:49;100662.63;;;-1.89
28803;BMP280;15949;55.656;37.422;2024-03-06T08:44:55;100655.91;;;-1.83
28803;BMP280;15949;55.656;37.422;2024-03-06T08:50:03;100650.34;;;-1.55
28803;BMP280;15949;55.656;37.422;2024-03-06T08:55:09;100645.06;;;-1.60
28803;BMP280;15949;55.656;37.422;2024-03-06T09:00:15;100647.63;;;-1.42
28803;BMP280;15949;55.656;37.422;2024-03-06T09:05:22;100649.19;;;-1.41
28803;BMP280;15949;55.656;37.422;2024-03-06T09:10:28;100643.25;;;-1.53
28803;BMP280;15949;55.656;37.422;2024-03-06T09:15:34;100634.22;;;-1.38
28803;BMP280;15949;55.656;37.422;2024-03-06T09:20:40;100638.63;;;-1.15
28803;BMP280;15949;55.656;37.422;2024-03-06T09:25:46;100637.50;;;-0.89
28803;BMP280;15949;55.656;37.422;2024-03-06T09:30:52;100639.19;;;-0.95
28803;BMP280;15949;55.656;37.422;2024-03-06T09:35:58;100629.69;;;-0.94
28803;BMP280;15949;55.656;37.422;2024-03-06T09:41:04;100631.38;;;-0.76
28803;BMP280;15949;55.656;37.422;2024-03-06T09:46:10;100607.69;;;-0.83
28803;BMP280;15949;55.656;37.422;2024-03-06T09:51:16;100608.59;;;-0.66
28803;BMP280;15949;55.656;37.422;2024-03-06T09:56:22;100616.34;;;-0.43
28803;BMP280;15949;55.656;37.422;2024-03-06T10:01:29;100613.78;;;-0.43
28803;BMP280;15949;55.656;37.422;2024-03-06T10:06:37;100611.09;;;-0.25
28803;BMP280;15949;55.656;37.422;2024-03-06T10:11:43;100615.81;;;0.18
28803;BMP280;15949;55.656;37.422;2024-03-06T10:16:53;100610.88;;;-0.12
28803;BMP280;15949;55.656;37.422;2024-03-06T10:21:59;100600.28;;;-0.15
28803;BMP280;15949;55.656;37.422;2024-03-06T10:27:05;100601.19;;;-0.10
28803;BMP280;15949;55.656;37.422;2024-03-06T10:32:16;100607.13;;;0.19
28803;BMP280;15949;55.656;37.422;2024-03-06T10:37:25;100604.25;;;0.16
28803;BMP280;15949;55.656;37.422;2024-03-06T10:42:33;100596.19;;;0.24
28803;BMP280;15949;55.656;37.422;2024-03-06T10:47:40;100595.22;;;0.01
28803;BMP280;15949;55.656;37.422;2024-03-06T10:52:47;100594.28;;;-0.09
28803;BMP280;15949;55.656;37.422;2024-03-06T10:57:55;100592.56;;;0.08
28803;BMP280;15949;55.656;37.422;2024-03-06T11:03:02;100583.13;;;-0.15
28803;BMP280;15949;55.656;37.422;2024-03-06T11:08:14;100590.09;;;0.13
28803;BMP280;15949;55.656;37.422;2024-03-06T11:13:24;100576.06;;;0.04
28803;BMP280;15949;55.656;37.422;2024-03-06T11:24:19;100574.13;;;0.23
28803;BMP280;15949;55.656;37.422;2024-03-06T11:29:28;100569.69;;;0.18
28803;BMP280;15949;55.656;37.422;2024-03-06T11:34:35;100569.66;;;-0.22
28803;BMP280;15949;55.656;37.422;2024-03-06T11:39:41;100569.16;;;-0.07
28803;BMP280;15949;55.656;37.422;2024-03-06T11:44:54;100556.94;;;0.23
28803;BMP280;15949;55.656;37.422;2024-03-06T11:50:05;100557.94;;;-0.18
28803;BMP280;15949;55.656;37.422;2024-03-06T11:55:14;100543.03;;;-0.67
28803;BMP280;15949;55.656;37.422;2024-03-06T12:00:22;100546.53;;;0.01
28803;BMP280;15949;55.656;37.422;2024-03-06T12:05:28;100535.53;;;0.58
28803;BMP280;15949;55.656;37.422;2024-03-06T12:10:38;100532.56;;;0.82
28803;BMP280;15949;55.656;37.422;2024-03-06T12:15:45;100531.25;;;0.63
28803;BMP280;15949;55.656;37.422;2024-03-06T12:20:51;100531.03;;;0.36
28803;BMP280;15949;55.656;37.422;2024-03-06T12:26:07;100522.00;;;0.17
28803;BMP280;15949;55.656;37.422;2024-03-06T12:31:16;100523.13;;;0.09
28803;BMP280;15949;55.656;37.422;2024-03-06T12:36:25;100524.09;;;-0.20
28803;BMP280;15949;55.656;37.422;2024-03-06T12:41:31;100515.84;;;-0.10
28803;BMP280;15949;55.656;37.422;2024-03-06T12:46:37;100516.75;;;-0.28
28803;BMP280;15949;55.656;37.422;2024-03-06T12:51:43;100501.63;;;-0.41
28803;BMP280;15949;55.656;37.422;2024-03-06T12:56:49;100503.16;;;-0.40
28803;BMP280;15949;55.656;37.422;2024-03-06T13:01:55;100493.59;;;-0.33
28803;BMP280;15949;55.656;37.422;2024-03-06T13:07:02;100493.81;;;-0.23
28803;BMP280;15949;55.656;37.422;2024-03-06T13:12:09;100494.25;;;0.14
28803;BMP280;15949;55.656;37.422;2024-03-06T13:17:15;100496.16;;;0.52
28803;BMP280;15949;55.656;37.422;2024-03-06T13:22:22;100490.75;;;0.65
28803;BMP280;15949;55.656;37.422;2024-03-06T13:27:28;100486.38;;;0.82
28803;BMP280;15949;55.656;37.422;2024-03-06T13:32:33;100485.88;;;0.19
28803;BMP280;15949;55.656;37.422;2024-03-06T13:37:40;100475.22;;;-0.18
28803;BMP280;15949;55.656;37.422;2024-03-06T13:42:47;100483.03;;;-0.36
28803;BMP280;15949;55.656;37.422;2024-03-06T13:47:53;100478.28;;;-0.79
28803;BMP280;15949;55.656;37.422;2024-03-06T13:52:59;100473.75;;;-1.01
28803;BMP280;15949;55.656;37.422;2024-03-06T13:58:05;100472.38;;;-1.26
28803;BMP280;15949;55.656;37.422;2024-03-06T14:03:12;100467.88;;;-1.54
28803;BMP280;15949;55.656;37.422;2024-03-06T14:08:18;100473.88;;;-1.49
28803;BMP280;15949;55.656;37.422;2024-03-06T14:13:24;100462.28;;;-1.63
28803;BMP280;15949;55.656;37.422;2024-03-06T14:18:30;100474.78;;;-1.73
28803;BMP280;15949;55.656;37.422;2024-03-06T14:23:36;100469.13;;;-1.93
28803;BMP280;15949;55.656;37.422;2024-03-06T14:28:42;100459.72;;;-2.11
28803;BMP280;15949;55.656;37.422;2024-03-06T14:33:48;100458.31;;;-2.25
28803;BMP280;15949;55.656;37.422;2024-03-06T14:38:54;100457.72;;;-2.39
28803;BMP280;15949;55.656;37.422;2024-03-06T14:44:00;100458.75;;;-2.46
28803;BMP280;15949;55.656;37.422;2024-03-06T14:49:07;100464.97;;;-2.60
28803;BMP280;15949;55.656;37.422;2024-03-06T14:54:13;100465.59;;;-2.65
28803;BMP280;15949;55.656;37.422;2024-03-06T14:59:21;100454.09;;;-2.74
28803;BMP280;15949;55.656;37.422;2024-03-06T15:04:27;100459.13;;;-2.86
28803;BMP280;15949;55.656;37.422;2024-03-06T15:09:33;100455.84;;;-2.93
28803;BMP280;15949;55.656;37.422;2024-03-06T15:14:42;100453.97;;;-3.10
28803;BMP280;15949;55.656;37.422;2024-03-06T15:19:48;100458.78;;;-3.21
28803;BMP280;15949;55.656;37.422;2024-03-06T15:24:54;100453.53;;;-3.32
28803;BMP280;15949;55.656;37.422;2024-03-06T15:29:59;100457.31;;;-3.41
28803;BMP280;15949;55.656;37.422;2024-03-06T15:35:06;100457.56;;;-3.49
28803;BMP280;15949;55.656;37.422;2024-03-06T15:40:14;100456.06;;;-3.57
28803;BMP280;15949;55.656;37.422;2024-03-06T15:45:19;100463.56;;;-3.69
28803;BMP280;15949;55.656;37.422;2024-03-06T15:50:27;100464.63;;;-3.83
28803;BMP280;15949;55.656;37.422;2024-03-06T15:55:33;100465.84;;;-3.92
28803;BMP280;15949;55.656;37.422;2024-03-06T16:00:40;100473.66;;;-3.93
28803;BMP280;15949;55.656;37.422;2024-03-06T16:05:46;100467.22;;;-4.03
28803;BMP280;15949;55.656;37.422;2024-03-06T16:10:53;100466.28;;;-4.15
28803;BMP280;15949;55.656;37.422;2024-03-06T16:15:58;100465.13;;;-4.19
28803;BMP280;15949;55.656;37.422;2024-03-06T16:21:04;100466.28;;;-4.21
28803;BMP280;15949;55.656;37.422;2024-03-06T16:26:10;100468.25;;;-4.30
28803;BMP280;15949;55.656;37.422;2024-03-06T16:31:16;100459.47;;;-4.40
28803;BMP280;15949;55.656;37.422;2024-03-06T16:36:24;100455.19;;;-4.53
28803;BMP280;15949;55.656;37.422;2024-03-06T16:41:31;100448.34;;;-4.66
28803;BMP280;15949;55.656;37.422;2024-03-06T16:46:37;100448.56;;;-4.74
28803;BMP280;15949;55.656;37.422;2024-03-06T16:51:43;100455.78;;;-4.84
28803;BMP280;15949;55.656;37.422;2024-03-06T16:56:49;100449.94;;;-4.91
28803;BMP280;15949;55.656;37.422;2024-03-06T17:01:55;100448.72;;;-5.02
28803;BMP280;15949;55.656;37.422;2024-03-06T17:07:01;100446.19;;;-5.08
28803;BMP280;15949;55.656;37.422;2024-03-06T17:12:14;100439.72;;;-5.17
28803;BMP280;15949;55.656;37.422;2024-03-06T17:17:20;100444.03;;;-5.24
28803;BMP280;15949;55.656;37.422;2024-03-06T17:22:26;100435.03;;;-5.27
28803;BMP280;15949;55.656;37.422;2024-03-06T17:27:32;100438.91;;;-5.38
28803;BMP280;15949;55.656;37.422;2024-03-06T17:32:37;100443.56;;;-5.48
28803;BMP280;15949;55.656;37.422;2024-03-06T17:37:43;100445.72;;;-5.45
28803;BMP280;15949;55.656;37.422;2024-03-06T17:42:49;100444.75;;;-5.44
28803;BMP280;15949;55.656;37.422;2024-03-06T17:47:56;100448.66;;;-5.48
28803;BMP280;15949;55.656;37.422;2024-03-06T17:53:05;100449.22;;;-5.52
28803;BMP280;15949;55.656;37.422;2024-03-06T17:58:12;100449.44;;;-5.54
28803;BMP280;15949;55.656;37.422;2024-03-06T18:03:18;100445.84;;;-5.66
28803;BMP280;15949;55.656;37.422;2024-03-06T18:08:26;100446.19;;;-5.76
28803;BMP280;15949;55.656;37.422;2024-03-06T18:13:32;100435.09;;;-5.75
28803;BMP280;15949;55.656;37.422;2024-03-06T18:18:38;100449.31;;;-5.80
28803;BMP280;15949;55.656;37.422;2024-03-06T18:23:44;100443.06;;;-5.84
28803;BMP280;15949;55.656;37.422;2024-03-06T18:28:50;100445.19;;;-5.88
28803;BMP280;15949;55.656;37.422;2024-03-06T18:33:55;100442.00;;;-5.96
28803;BMP280;15949;55.656;37.422;2024-03-06T18:39:01;100436.16;;;-6.03
28803;BMP280;15949;55.656;37.422;2024-03-06T18:44:07;100437.44;;;-6.14
28803;BMP280;15949;55.656;37.422;2024-03-06T18:49:13;100434.25;;;-6.23
28803;BMP280;15949;55.656;37.422;2024-03-06T18:54:26;100436.56;;;-6.28
28803;BMP280;15949;55.656;37.422;2024-03-06T18:59:32;100433.09;;;-6.27
28803;BMP280;15949;55.656;37.422;2024-03-06T19:04:37;100438.09;;;-6.33
28803;BMP280;15949;55.656;37.422;2024-03-06T19:09:44;100430.66;;;-6.41
28803;BMP280;15949;55.656;37.422;2024-03-06T19:14:50;100428.66;;;-6.46
28803;BMP280;15949;55.656;37.422;2024-03-06T19:19:56;100432.91;;;-6.53
28803;BMP280;15949;55.656;37.422;2024-03-06T19:25:06;100426.59;;;-6.64
28803;BMP280;15949;55.656;37.422;2024-03-06T19:30:14;100427.91;;;-6.68
28803;BMP280;15949;55.656;37.422;2024-03-06T19:35:19;100427.72;;;-6.66
28803;BMP280;15949;55.656;37.422;2024-03-06T19:40:27;100419.06;;;-6.78
28803;BMP280;15949;55.656;37.422;2024-03-06T19:45:33;100415.69;;;-6.85
28803;BMP280;15949;55.656;37.422;2024-03-06T19:50:39;100421.72;;;-6.86
28803;BMP280;15949;55.656;37.422;2024-03-06T19:55:46;100426.16;;;-6.88
28803;BMP280;15949;55.656;37.422;2024-03-06T20:00:53;100417.03;;;-6.89
28803;BMP280;15949;55.656;37.422;2024-03-06T20:06:00;100416.41;;;-6.91
28803;BMP280;15949;55.656;37.422;2024-03-06T20:11:06;100419.88;;;-6.99
28803;BMP280;15949;55.656;37.422;2024-03-06T20:16:12;100428.59;;;-7.02
28803;BMP280;15949;55.656;37.422;2024-03-06T20:21:18;100419.81;;;-7.06
28803;BMP280;15949;55.656;37.422;2024-03-06T20:26:24;100425.59;;;-7.12
28803;BMP280;15949;55.656;37.422;2024-03-06T20:31:30;100421.00;;;-7.23
28803;BMP280;15949;55.656;37.422;2024-03-06T20:36:36;100422.78;;;-7.38
28803;BMP280;15949;55.656;37.422;2024-03-06T20:41:42;100413.97;;;-7.42
28803;BMP280;15949;55.656;37.422;2024-03-06T20:46:48;100410.50;;;-7.41
28803;BMP280;15949;55.656;37.422;2024-03-06T20:51:54;100402.63;;;-7.46
28803;BMP280;15949;55.656;37.422;2024-03-06T20:57:00;100398.84;;;-7.57
28803;BMP280;15949;55.656;37.422;2024-03-06T21:02:06;100402.69;;;-7.61
28803;BMP280;15949;55.656;37.422;2024-03-06T21:07:11;100404.59;;;-7.63
28803;BMP280;15949;55.656;37.422;2024-03-06T21:12:17;100408.34;;;-7.59
28803;BMP280;15949;55.656;37.422;2024-03-06T21:17:26;100404.19;;;-7.66
28803;BMP280;15949;55.656;37.422;2024-03-06T21:22:32;100402.59;;;-7.67
28803;BMP280;15949;55.656;37.422;2024-03-06T21:27:39;100393.59;;;-7.70
28803;BMP280;15949;55.656;37.422;2024-03-06T21:32:45;100392.41;;;-7.74
28803;BMP280;15949;55.656;37.422;2024-03-06T21:37:51;100390.66;;;-7.73
28803;BMP280;15949;55.656;37.422;2024-03-06T21:42:56;100398.97;;;-7.79
28803;BMP280;15949;55.656;37.422;2024-03-06T21:48:02;100396.19;;;-7.85
28803;BMP280;15949;55.656;37.422;2024-03-06T21:53:08;100384.84;;;-7.89
28803;BMP280;15949;55.656;37.422;2024-03-06T21:58:15;100378.47;;;-7.99
28803;BMP280;15949;55.656;37.422;2024-03-06T22:03:22;100387.53;;;-8.05
28803;BMP280;15949;55.656;37.422;2024-03-06T22:08:29;100385.47;;;-8.16
28803;BMP280;15949;55.656;37.422;2024-03-06T22:13:35;100385.53;;;-8.24
28803;BMP280;15949;55.656;37.422;2024-03-06T22:18:41;100378.56;;;-8.37
28803;BMP280;15949;55.656;37.422;2024-03-06T22:23:48;100374.72;;;-8.33
28803;BMP280;15949;55.656;37.422;2024-03-06T22:28:53;100379.19;;;-8.35
28803;BMP280;15949;55.656;37.422;2024-03-06T22:33:59;100384.81;;;-8.47
28803;BMP280;15949;55.656;37.422;2024-03-06T22:39:10;100382.09;;;-8.60
28803;BMP280;15949;55.656;37.422;2024-03-06T22:44:15;100382.94;;;-8.68
28803;BMP280;15949;55.656;37.422;2024-03-06T22:49:21;100382.00;;;-8.67
28803;BMP280;15949;55.656;37.422;2024-03-06T22:54:27;100377.06;;;-8.60
28803;BMP280;15949;55.656;37.422;2024-03-06T22:59:33;100374.16;;;-8.57
28803;BMP280;15949;55.656;37.422;2024-03-06T23:04:39;100371.72;;;-8.66
28803;BMP280;15949;55.656;37.422;2024-03-06T23:09:44;100370.22;;;-8.75
28803;BMP280;15949;55.656;37.422;2024-03-06T23:14:53;100366.13;;;-8.76
28803;BMP280;15949;55.656;37.422;2024-03-06T23:19:59;100371.59;;;-8.72
28803;BMP280;15949;55.656;37.422;2024-03-06T23:25:05;100360.38;;;-8.84
28803;BMP280;15949;55.656;37.422;2024-03-06T23:30:13;100362.72;;;-8.83
28803;BMP280;15949;55.656;37.422;2024-03-06T23:35:19;100358.69;;;-8.92
28803;BMP280;15949;55.656;37.422;2024-03-06T23:40:25;100342.78;;;-9.00
28803;BMP280;15949;55.656;37.422;2024-03-06T23:45:34;100347.59;;;-9.14
28803;BMP280;15949;55.656;37.422;2024-03-06T23:50:40;100336.41;;;-9.34
28803;BMP280;15949;55.656;37.422;2024-03-06T23:55:46;100334.72;;;-9.41
